Latest Coastal Weather Observations for Mardie

IDW60701

Issued at 6:25 pm WST Thursday 2 October 2014 (issued every 10 minutes, with the page automatically refreshed every 10 minutes)

About coastal observations | Map of coastal stations | Coastal observations for WA | Marine services | Other Formats
Station Details ID: 005008 Name: MARDIE Lat: -21.19 Lon: 115.98 Height: 11.0 m
Data from the previous 72 hours. | See also: Recent months at Mardie
Date/Time
WST
Temp

°C
Wind Pressure Rain
since 9am
mm
Weather Cloud Vis
km
Sea
Height
m
Swell
Dir
 
Speed
knots
Gust
knots
hPa Trend Height
m
Period
s
Dir
02/06:00pm 25.8 W 13 20 1013.1 - 0.0 - - - - - - -
02/05:30pm 26.1 W 14 19 1012.9 - 0.0 - - - - - - -
02/05:00pm 26.6 W 15 20 1012.7 - 0.0 - - - - - - -
02/04:30pm 27.9 W 15 21 1012.5 - 0.0 - - - - - - -
02/04:00pm 28.0 W 16 20 1012.3 - 0.0 - - - - - - -
02/03:30pm 28.8 WNW 17 22 1012.0 - 0.0 - - - - - - -
02/03:00pm 29.8 WNW 17 22 1012.0 - 0.0 - - - - - - -
02/02:30pm 30.9 W 17 23 1012.0 - 0.0 - - - - - - -
02/02:00pm 31.7 WNW 17 21 1012.1 - 0.0 - - - - - - -
02/01:30pm 33.1 WNW 14 18 1012.2 - 0.0 - - - - - - -
02/01:00pm 34.2 WSW 7 14 1012.4 - 0.0 - - - - - - -
02/12:30pm 34.0 WSW 9 14 1012.5 - 0.0 - - - - - - -
02/12:00pm 32.9 SW 9 16 1012.9 - 0.0 - - - - - - -
02/11:30am 32.3 SSW 9 15 1013.5 - 0.0 - - - - - - -
02/11:00am 30.5 SW 8 13 1014.1 - 0.0 - - - - - - -
02/10:30am 30.3 SSW 7 13 1014.3 - 0.0 - - - - - - -
02/10:00am 28.2 SSW 9 15 1014.3 - 0.0 - - - - - - -
02/09:30am 27.4 SSW 9 13 1014.5 - 0.0 - - - - - - -
02/09:00am 25.7 SSW 9 13 1014.6 - 0.0 - - - - - - -
02/08:30am 24.1 SSW 10 14 1014.5 - 0.0 - - - - - - -
02/08:00am 22.5 SW 8 10 1014.5 - 0.0 - - - - - - -
02/07:30am 20.7 SW 9 11 1014.3 - 0.0 - - - - - - -
02/07:00am 19.3 SW 8 10 1014.0 - 0.0 - - - - - - -
02/06:30am 18.2 SW 7 9 1013.8 - 0.0 - - - - - - -
02/06:00am 18.3 SW 7 10 1013.6 - 0.0 - - - - - - -
02/05:30am 18.3 SW 8 11 1013.3 - 0.0 - - - - - - -
02/05:00am 18.2 SW 6 8 1013.1 - 0.0 - - - - - - -
02/04:30am 18.1 SW 6 7 1012.8 - 0.0 - - - - - - -
02/04:00am 18.3 SW 6 8 1012.6 - 0.0 - - - - - - -
02/03:30am 18.7 SW 6 7 1012.6 - 0.0 - - - - - - -
02/03:00am 19.4 SW 6 8 1012.6 - 0.0 - - - - - - -
02/02:30am 19.9 SW 7 9 1012.8 - 0.0 - - - - - - -
02/02:00am 20.3 SW 7 8 1012.9 - 0.0 - - - - - - -
02/01:30am 21.0 SW 7 9 1012.9 - 0.0 - - - - - - -
02/01:00am 21.5 WSW 7 9 1013.2 - 0.0 - - - - - - -
02/12:30am 21.9 WSW 7 9 1013.2 - 0.0 - - - - - - -
02/12:00am 22.4 WSW 8 11 1013.5 - 0.0 - - - - - - -
 
Date/Time
WST
Temp

°C
Wind Pressure Rain
since 9am
mm
Weather Cloud Vis
km
Sea
Height
m
Swell
Dir
 
Speed
knots
Gust
knots
hPa Trend Height
m
Period
s
Dir
01/11:30pm 22.9 WSW 8 11 1013.8 - 0.0 - - - - - - -
01/11:00pm 23.2 WSW 8 11 1013.9 - 0.0 - - - - - - -
01/10:30pm 23.3 WSW 8 11 1014.1 - 0.0 - - - - - - -
01/10:00pm 23.6 WSW 9 13 1014.1 - 0.0 - - - - - - -
01/09:30pm 23.7 WSW 10 13 1014.3 - 0.0 - - - - - - -
01/09:00pm 23.7 W 9 12 1014.2 - 0.0 - - - - - - -
01/08:30pm 23.8 W 10 14 1014.1 - 0.0 - - - - - - -
01/08:00pm 24.1 W 12 17 1013.9 - 0.0 - - - - - - -
01/07:30pm 24.8 W 10 14 1013.5 - 0.0 - - - - - - -
01/07:00pm 25.4 W 10 14 1013.1 - 0.0 - - - - - - -
01/06:30pm 25.7 W 13 17 1012.8 - 0.0 - - - - - - -
01/06:00pm 26.6 W 11 16 1012.6 - 0.0 - - - - - - -
01/05:30pm 27.9 W 10 15 1012.4 - 0.0 - - - - - - -
01/05:00pm 28.3 W 11 14 1012.4 - 0.0 - - - - - - -
01/04:30pm 29.8 W 12 16 1012.4 - 0.0 - - - - - - -
01/04:00pm 30.2 W 11 15 1012.4 - 0.0 - - - - - - -
01/03:30pm 30.6 WNW 13 18 1012.3 - 0.0 - - - - - - -
01/03:00pm 31.4 W 14 18 1012.4 - 0.0 - - - - - - -
01/02:30pm 31.7 W 15 19 1012.5 - 0.0 - - - - - - -
01/02:00pm 31.5 WNW 14 21 1012.8 - 0.0 - - - - - - -
01/01:30pm 32.0 W 13 18 1013.0 - 0.0 - - - - - - -
01/01:00pm 32.5 W 12 16 1013.3 - 0.0 - - - - - - -
01/12:30pm 32.0 WNW 12 16 1013.7 - 0.0 - - - - - - -
01/12:00pm 32.4 W 10 14 1014.0 - 0.0 - - - - - - -
01/11:30am 32.4 WSW 9 16 1014.3 - 0.0 - - - - - - -
01/11:00am 32.0 SW 8 12 1014.7 - 0.0 - - - - - - -
01/10:30am 31.4 SSW 8 12 1014.8 - 0.0 - - - - - - -
01/10:00am 30.9 SSW 7 12 1015.1 - 0.0 - - - - - - -
01/09:30am 29.5 SSW 8 13 1015.1 - 0.0 - - - - - - -
01/09:00am 28.4 S 8 12 1015.2 - 0.0 - - - - - - -
01/08:30am 25.6 S 6 10 1015.0 - 0.0 - - - - - - -
01/08:00am 22.8 SW 5 7 1015.0 - 0.0 - - - - - - -
01/07:30am 20.8 WSW 5 6 1015.0 - 0.0 - - - - - - -
01/07:00am 18.6 SW 5 7 1014.5 - 0.0 - - - - - - -
01/06:30am 16.5 WSW 4 5 1014.2 - 0.0 - - - - - - -
01/06:00am 16.1 SSW 3 4 1013.8 - 0.0 - - - - - - -
01/05:30am 16.2 SSW 3 4 1013.4 - 0.0 - - - - - - -
01/05:00am 16.6 SSW 4 4 1013.2 - 0.0 - - - - - - -
01/04:30am 17.4 SSW 4 6 1012.8 - 0.0 - - - - - - -
01/04:00am 18.2 SW 5 7 1013.0 - 0.0 - - - - - - -
01/03:30am 18.7 SW 5 7 1013.1 - 0.0 - - - - - - -
01/03:00am 20.0 SW 6 10 1013.3 - 0.0 - - - - - - -
01/02:30am 20.6 WSW 9 14 1013.1 - 0.0 - - - - - - -
01/02:00am 19.5 WSW 7 8 1013.5 - 0.0 - - - - - - -
01/01:30am 19.3 WSW 5 6 1013.7 - 0.0 - - - - - - -
01/01:00am 19.6 WSW 5 5 1013.9 - 0.0 - - - - - - -
01/12:30am 19.5 WSW 5 5 1014.1 - 0.0 - - - - - - -
01/12:00am 19.4 SW 3 4 1014.3 - 0.0 - - - - - - -
 
Date/Time
WST
Temp

°C
Wind Pressure Rain
since 9am
mm
Weather Cloud Vis
km
Sea
Height
m
Swell
Dir
 
Speed
knots
Gust
knots
hPa Trend Height
m
Period
s
Dir
30/11:30pm 19.9 CALM 0 0 1014.4 - 0.0 - - - - - - -
30/11:00pm 20.7 SW 2 2 1014.6 - 0.0 - - - - - - -
30/10:30pm 20.8 SW 3 3 1014.6 - 0.0 - - - - - - -
30/10:00pm 21.5 SW 4 4 1014.6 - 0.0 - - - - - - -
30/09:30pm 21.9 WSW 4 5 1014.7 - 0.0 - - - - - - -
30/09:00pm 22.3 W 3 4 1014.7 - 0.0 - - - - - - -
30/08:30pm 22.9 W 4 5 1014.5 - 0.0 - - - - - - -
30/08:00pm 23.4 W 4 5 1014.2 - 0.0 - - - - - - -
30/07:30pm 24.0 W 5 7 1013.9 - 0.0 - - - - - - -
30/07:00pm 24.4 W 6 7 1013.3 - 0.0 - - - - - - -
30/06:30pm 25.1 W 9 11 1012.6 - 0.0 - - - - - - -
30/06:00pm 26.4 W 9 12 1012.4 - 0.0 - - - - - - -
30/05:30pm 27.9 W 9 11 1012.2 - 0.0 - - - - - - -
30/05:00pm 29.2 WNW 10 13 1011.9 - 0.0 - - - - - - -
30/04:30pm 29.9 W 11 14 1011.7 - 0.0 - - - - - - -
30/04:00pm 31.2 WNW 10 13 1011.6 - 0.0 - - - - - - -
30/03:30pm 31.3 WNW 10 13 1011.5 - 0.0 - - - - - - -
30/03:00pm 31.4 WNW 10 13 1011.7 - 0.0 - - - - - - -
30/02:30pm 32.0 W 10 13 1011.6 - 0.0 - - - - - - -
30/02:00pm 31.8 WNW 10 14 1011.7 - 0.0 - - - - - - -
30/01:30pm 30.9 WNW 9 13 1011.9 - 0.0 - - - - - - -
30/01:00pm 30.9 WNW 9 14 1012.3 - 0.0 - - - - - - -
30/12:30pm 31.0 W 10 13 1012.8 - 0.0 - - - - - - -
30/12:00pm 30.8 W 9 13 1013.3 - 0.0 - - - - - - -
30/11:30am 31.3 WNW 7 9 1013.6 - 0.0 - - - - - - -
30/11:00am 30.9 W 6 14 1014.1 - 0.0 - - - - - - -
30/10:30am 29.4 WNW 4 9 1014.3 - 0.0 - - - - - - -
30/10:00am 28.8 W 3 7 1014.4 - 0.0 - - - - - - -
30/09:30am 26.2 W 4 6 1014.5 - 0.0 - - - - - - -
30/09:00am 25.0 W 5 7 1014.5 - 0.0 - - - - - - -
30/08:30am 23.0 W 6 8 1014.4 - 0.0 - - - - - - -
30/08:00am 21.6 WSW 6 8 1014.4 - 0.0 - - - - - - -
30/07:30am 19.8 SSW 5 7 1014.1 - 0.0 - - - - - - -
30/07:00am 18.1 SSW 7 9 1013.9 - 0.0 - - - - - - -
30/06:30am 16.7 SW 4 6 1013.7 - 0.0 - - - - - - -
30/06:00am 17.0 SSW 6 8 1013.6 - 0.0 - - - - - - -
30/05:30am 17.3 SSW 6 8 1013.3 - 0.0 - - - - - - -
30/05:00am 16.6 WSW 5 6 1013.2 - 0.0 - - - - - - -
30/04:30am 16.8 W 5 6 1013.3 - 0.0 - - - - - - -
30/04:00am 16.9 W 5 6 1013.3 - 0.0 - - - - - - -
30/03:30am 17.4 SW 3 4 1013.1 - 0.0 - - - - - - -
30/03:00am 17.9 S 2 3 1013.0 - 0.0 - - - - - - -
30/02:30am 18.0 SSW 5 5 1013.0 - 0.0 - - - - - - -
30/02:00am 18.8 SW 3 4 1013.2 - 0.0 - - - - - - -
30/01:30am 19.2 SW 7 8 1013.2 - 0.0 - - - - - - -
30/01:00am 19.3 SW 5 7 1013.6 - 0.0 - - - - - - -
30/12:30am 20.2 CALM 0 2 1013.9 - 0.0 - - - - - - -
30/12:00am 20.9 WSW 4 6 1013.9 - 0.0 - - - - - - -
 
Date/Time
WST
Temp

°C
Wind Pressure Rain
since 9am
mm
Weather Cloud Vis
km
Sea
Height
m
Swell
Dir
 
Speed
knots
Gust
knots
hPa Trend Height
m
Period
s
Dir
29/11:30pm 21.3 WSW 4 6 1013.9 - 0.0 - - - - - - -
29/11:00pm 21.8 W 6 8 1014.0 - 0.0 - - - - - - -
29/10:30pm 22.3 WSW 8 10 1014.2 - 0.0 - - - - - - -
29/10:00pm 22.6 W 8 12 1014.4 - 0.0 - - - - - - -
29/09:30pm 23.0 WSW 9 12 1014.3 - 0.0 - - - - - - -
29/09:00pm 23.5 WSW 8 11 1014.3 - 0.0 - - - - - - -
29/08:30pm 23.9 WSW 8 11 1014.1 - 0.0 - - - - - - -
29/08:00pm 24.1 WSW 8 11 1014.0 - 0.0 - - - - - - -
29/07:30pm 24.4 W 8 12 1013.7 - 0.0 - - - - - - -
29/07:00pm 24.7 W 11 15 1013.5 - 0.0 - - - - - - -
29/06:30pm 25.1 W 9 13 1013.3 - 0.0 - - - - - - -

Other Formats:

Comma delimited format used in spreadsheet applications
http://www.bom.gov.au/fwo/IDW60701/IDW60701.94306.axf

JavaScript Object Notation format (JSON) in row-major order
http://www.bom.gov.au/fwo/IDW60701/IDW60701.94306.json